sensor_id;sensor_type;location;lat;lon;timestamp;P1;durP1;ratioP1;P2;durP2;ratioP2
14348;SDS011;7258;50.376;8.742;2023-09-19T00:00:49;8.60;;;5.88;;
14348;SDS011;7258;50.376;8.742;2023-09-19T00:02:53;8.85;;;6.20;;
14348;SDS011;7258;50.376;8.742;2023-09-19T00:04:56;8.95;;;6.20;;
14348;SDS011;7258;50.376;8.742;2023-09-19T00:06:59;8.95;;;5.82;;
14348;SDS011;7258;50.376;8.742;2023-09-19T00:09:03;8.63;;;6.90;;
14348;SDS011;7258;50.376;8.742;2023-09-19T00:11:11;11.98;;;7.55;;
14348;SDS011;7258;50.376;8.742;2023-09-19T00:13:14;9.55;;;7.35;;
14348;SDS011;7258;50.376;8.742;2023-09-19T00:15:17;8.52;;;7.07;;
14348;SDS011;7258;50.376;8.742;2023-09-19T00:17:22;9.93;;;7.57;;
14348;SDS011;7258;50.376;8.742;2023-09-19T00:19:25;11.65;;;7.60;;
14348;SDS011;7258;50.376;8.742;2023-09-19T00:21:28;8.32;;;6.65;;
14348;SDS011;7258;50.376;8.742;2023-09-19T00:23:33;8.82;;;6.78;;
14348;SDS011;7258;50.376;8.742;2023-09-19T00:25:36;12.48;;;7.05;;
14348;SDS011;7258;50.376;8.742;2023-09-19T00:27:39;9.45;;;6.80;;
14348;SDS011;7258;50.376;8.742;2023-09-19T00:29:44;8.30;;;6.53;;
14348;SDS011;7258;50.376;8.742;2023-09-19T00:31:47;10.90;;;6.07;;
14348;SDS011;7258;50.376;8.742;2023-09-19T00:33:51;8.13;;;6.30;;
14348;SDS011;7258;50.376;8.742;2023-09-19T00:35:54;8.95;;;5.93;;
14348;SDS011;7258;50.376;8.742;2023-09-19T00:37:59;8.27;;;6.10;;
14348;SDS011;7258;50.376;8.742;2023-09-19T00:40:03;8.68;;;5.63;;
14348;SDS011;7258;50.376;8.742;2023-09-19T00:42:06;7.88;;;5.60;;
14348;SDS011;7258;50.376;8.742;2023-09-19T00:44:09;8.88;;;5.55;;
14348;SDS011;7258;50.376;8.742;2023-09-19T00:46:14;6.30;;;5.30;;
14348;SDS011;7258;50.376;8.742;2023-09-19T00:48:19;6.53;;;5.57;;
14348;SDS011;7258;50.376;8.742;2023-09-19T00:50:24;8.25;;;5.10;;
14348;SDS011;7258;50.376;8.742;2023-09-19T00:52:30;8.00;;;5.18;;
14348;SDS011;7258;50.376;8.742;2023-09-19T00:54:33;7.55;;;5.18;;
14348;SDS011;7258;50.376;8.742;2023-09-19T00:56:37;6.60;;;5.00;;
14348;SDS011;7258;50.376;8.742;2023-09-19T00:58:41;8.57;;;4.70;;
14348;SDS011;7258;50.376;8.742;2023-09-19T01:00:43;7.95;;;5.30;;
14348;SDS011;7258;50.376;8.742;2023-09-19T01:02:46;5.82;;;4.55;;
14348;SDS011;7258;50.376;8.742;2023-09-19T01:04:50;6.22;;;4.68;;
14348;SDS011;7258;50.376;8.742;2023-09-19T01:06:56;7.43;;;4.93;;
14348;SDS011;7258;50.376;8.742;2023-09-19T01:09:00;6.45;;;4.60;;
14348;SDS011;7258;50.376;8.742;2023-09-19T01:11:07;8.18;;;4.90;;
14348;SDS011;7258;50.376;8.742;2023-09-19T01:13:18;6.18;;;4.75;;
14348;SDS011;7258;50.376;8.742;2023-09-19T01:15:28;8.13;;;4.53;;
14348;SDS011;7258;50.376;8.742;2023-09-19T01:17:42;7.85;;;5.18;;
14348;SDS011;7258;50.376;8.742;2023-09-19T01:20:07;5.97;;;5.25;;
14348;SDS011;7258;50.376;8.742;2023-09-19T01:22:29;6.78;;;4.00;;
14348;SDS011;7258;50.376;8.742;2023-09-19T01:24:51;7.03;;;4.80;;
14348;SDS011;7258;50.376;8.742;2023-09-19T01:27:25;5.80;;;4.15;;
14348;SDS011;7258;50.376;8.742;2023-09-19T01:29:38;6.70;;;4.60;;
14348;SDS011;7258;50.376;8.742;2023-09-19T01:31:46;7.20;;;4.40;;
14348;SDS011;7258;50.376;8.742;2023-09-19T01:33:58;6.45;;;4.60;;
14348;SDS011;7258;50.376;8.742;2023-09-19T01:36:01;7.60;;;4.55;;
14348;SDS011;7258;50.376;8.742;2023-09-19T01:38:06;8.68;;;5.20;;
14348;SDS011;7258;50.376;8.742;2023-09-19T01:40:11;9.02;;;5.22;;
14348;SDS011;7258;50.376;8.742;2023-09-19T01:42:21;6.10;;;4.80;;
14348;SDS011;7258;50.376;8.742;2023-09-19T01:44:36;11.20;;;5.70;;
14348;SDS011;7258;50.376;8.742;2023-09-19T01:46:48;7.00;;;5.50;;
14348;SDS011;7258;50.376;8.742;2023-09-19T01:48:54;5.60;;;5.00;;
14348;SDS011;7258;50.376;8.742;2023-09-19T01:51:05;6.50;;;4.95;;
14348;SDS011;7258;50.376;8.742;2023-09-19T01:53:10;10.02;;;5.30;;
14348;SDS011;7258;50.376;8.742;2023-09-19T01:55:17;7.25;;;4.90;;
14348;SDS011;7258;50.376;8.742;2023-09-19T01:57:22;6.32;;;4.60;;
14348;SDS011;7258;50.376;8.742;2023-09-19T01:59:34;4.68;;;4.00;;
14348;SDS011;7258;50.376;8.742;2023-09-19T02:01:39;3.85;;;3.55;;
14348;SDS011;7258;50.376;8.742;2023-09-19T02:03:47;5.32;;;3.33;;
14348;SDS011;7258;50.376;8.742;2023-09-19T02:05:51;4.28;;;2.70;;
14348;SDS011;7258;50.376;8.742;2023-09-19T02:07:54;3.35;;;2.83;;
14348;SDS011;7258;50.376;8.742;2023-09-19T02:09:59;3.40;;;2.60;;
14348;SDS011;7258;50.376;8.742;2023-09-19T02:12:05;4.15;;;2.72;;
14348;SDS011;7258;50.376;8.742;2023-09-19T02:14:08;3.70;;;2.75;;
14348;SDS011;7258;50.376;8.742;2023-09-19T02:16:11;4.22;;;2.60;;
14348;SDS011;7258;50.376;8.742;2023-09-19T02:18:14;4.13;;;3.47;;
14348;SDS011;7258;50.376;8.742;2023-09-19T02:20:19;4.60;;;3.53;;
14348;SDS011;7258;50.376;8.742;2023-09-19T02:22:22;4.28;;;3.85;;
14348;SDS011;7258;50.376;8.742;2023-09-19T02:24:26;6.10;;;4.03;;
14348;SDS011;7258;50.376;8.742;2023-09-19T02:26:28;4.05;;;3.58;;
14348;SDS011;7258;50.376;8.742;2023-09-19T02:28:31;7.57;;;4.00;;
14348;SDS011;7258;50.376;8.742;2023-09-19T02:30:35;5.25;;;4.28;;
14348;SDS011;7258;50.376;8.742;2023-09-19T02:32:38;6.25;;;4.28;;
14348;SDS011;7258;50.376;8.742;2023-09-19T02:34:41;4.43;;;4.03;;
14348;SDS011;7258;50.376;8.742;2023-09-19T02:36:44;4.68;;;3.95;;
14348;SDS011;7258;50.376;8.742;2023-09-19T02:38:47;4.05;;;3.58;;
14348;SDS011;7258;50.376;8.742;2023-09-19T02:40:50;4.07;;;3.40;;
14348;SDS011;7258;50.376;8.742;2023-09-19T02:42:54;6.07;;;3.63;;
14348;SDS011;7258;50.376;8.742;2023-09-19T02:45:00;4.35;;;2.88;;
14348;SDS011;7258;50.376;8.742;2023-09-19T02:47:07;5.22;;;3.17;;
14348;SDS011;7258;50.376;8.742;2023-09-19T02:49:10;3.70;;;2.95;;
14348;SDS011;7258;50.376;8.742;2023-09-19T02:51:14;4.65;;;2.90;;
14348;SDS011;7258;50.376;8.742;2023-09-19T02:53:19;3.80;;;2.97;;
14348;SDS011;7258;50.376;8.742;2023-09-19T02:55:22;5.32;;;2.92;;
14348;SDS011;7258;50.376;8.742;2023-09-19T02:57:25;5.00;;;2.60;;
14348;SDS011;7258;50.376;8.742;2023-09-19T02:59:28;4.90;;;3.20;;
14348;SDS011;7258;50.376;8.742;2023-09-19T03:01:32;6.05;;;2.90;;
14348;SDS011;7258;50.376;8.742;2023-09-19T03:03:35;3.63;;;2.92;;
14348;SDS011;7258;50.376;8.742;2023-09-19T03:05:39;3.83;;;2.67;;
14348;SDS011;7258;50.376;8.742;2023-09-19T03:07:42;3.55;;;2.60;;
14348;SDS011;7258;50.376;8.742;2023-09-19T03:09:48;3.88;;;2.83;;
14348;SDS011;7258;50.376;8.742;2023-09-19T03:11:51;4.57;;;2.92;;
14348;SDS011;7258;50.376;8.742;2023-09-19T03:13:55;4.53;;;3.08;;
14348;SDS011;7258;50.376;8.742;2023-09-19T03:15:59;5.78;;;2.70;;
14348;SDS011;7258;50.376;8.742;2023-09-19T03:18:02;4.85;;;2.80;;
14348;SDS011;7258;50.376;8.742;2023-09-19T03:20:05;3.20;;;2.65;;
14348;SDS011;7258;50.376;8.742;2023-09-19T03:22:10;4.68;;;3.05;;
14348;SDS011;7258;50.376;8.742;2023-09-19T03:24:13;3.75;;;2.80;;
14348;SDS011;7258;50.376;8.742;2023-09-19T03:26:17;3.65;;;3.20;;
14348;SDS011;7258;50.376;8.742;2023-09-19T03:28:20;4.50;;;2.60;;
14348;SDS011;7258;50.376;8.742;2023-09-19T03:30:24;4.15;;;2.80;;
14348;SDS011;7258;50.376;8.742;2023-09-19T03:32:27;3.88;;;2.67;;
14348;SDS011;7258;50.376;8.742;2023-09-19T03:34:32;2.90;;;2.55;;
14348;SDS011;7258;50.376;8.742;2023-09-19T03:36:38;3.88;;;2.42;;
14348;SDS011;7258;50.376;8.742;2023-09-19T03:38:45;3.92;;;2.40;;
14348;SDS011;7258;50.376;8.742;2023-09-19T03:40:49;4.82;;;2.50;;
14348;SDS011;7258;50.376;8.742;2023-09-19T03:42:55;4.00;;;2.60;;
14348;SDS011;7258;50.376;8.742;2023-09-19T03:44:59;4.18;;;2.25;;
14348;SDS011;7258;50.376;8.742;2023-09-19T03:47:08;4.50;;;2.30;;
14348;SDS011;7258;50.376;8.742;2023-09-19T03:49:14;4.28;;;2.65;;
14348;SDS011;7258;50.376;8.742;2023-09-19T03:51:20;2.88;;;2.58;;
14348;SDS011;7258;50.376;8.742;2023-09-19T03:53:24;4.85;;;2.70;;
14348;SDS011;7258;50.376;8.742;2023-09-19T03:55:28;3.53;;;2.88;;
14348;SDS011;7258;50.376;8.742;2023-09-19T03:57:31;4.80;;;2.80;;
14348;SDS011;7258;50.376;8.742;2023-09-19T03:59:44;5.15;;;3.05;;
14348;SDS011;7258;50.376;8.742;2023-09-19T04:01:52;3.53;;;2.95;;
14348;SDS011;7258;50.376;8.742;2023-09-19T04:04:00;4.50;;;2.97;;
14348;SDS011;7258;50.376;8.742;2023-09-19T04:06:10;4.97;;;2.83;;
14348;SDS011;7258;50.376;8.742;2023-09-19T04:08:16;5.22;;;2.95;;
14348;SDS011;7258;50.376;8.742;2023-09-19T04:10:22;5.10;;;3.08;;
14348;SDS011;7258;50.376;8.742;2023-09-19T04:12:32;5.22;;;2.70;;
14348;SDS011;7258;50.376;8.742;2023-09-19T04:14:41;3.55;;;2.55;;
14348;SDS011;7258;50.376;8.742;2023-09-19T04:16:55;3.72;;;2.55;;
14348;SDS011;7258;50.376;8.742;2023-09-19T04:19:05;4.55;;;2.47;;
14348;SDS011;7258;50.376;8.742;2023-09-19T04:21:15;4.63;;;2.50;;
14348;SDS011;7258;50.376;8.742;2023-09-19T04:23:19;3.28;;;2.65;;
14348;SDS011;7258;50.376;8.742;2023-09-19T04:25:22;2.75;;;2.10;;
14348;SDS011;7258;50.376;8.742;2023-09-19T04:27:38;2.28;;;1.98;;
14348;SDS011;7258;50.376;8.742;2023-09-19T04:29:48;4.03;;;2.22;;
14348;SDS011;7258;50.376;8.742;2023-09-19T04:31:55;2.38;;;1.90;;
14348;SDS011;7258;50.376;8.742;2023-09-19T04:33:58;3.35;;;2.28;;
14348;SDS011;7258;50.376;8.742;2023-09-19T04:36:06;2.70;;;2.13;;
14348;SDS011;7258;50.376;8.742;2023-09-19T04:38:28;3.45;;;2.70;;
14348;SDS011;7258;50.376;8.742;2023-09-19T04:40:31;2.80;;;2.03;;
14348;SDS011;7258;50.376;8.742;2023-09-19T04:42:35;3.75;;;1.63;;
14348;SDS011;7258;50.376;8.742;2023-09-19T04:44:36;3.25;;;2.35;;
14348;SDS011;7258;50.376;8.742;2023-09-19T04:46:39;3.53;;;2.30;;
14348;SDS011;7258;50.376;8.742;2023-09-19T04:48:44;3.05;;;2.15;;
14348;SDS011;7258;50.376;8.742;2023-09-19T04:50:48;3.25;;;1.83;;
14348;SDS011;7258;50.376;8.742;2023-09-19T04:52:51;3.58;;;2.08;;
14348;SDS011;7258;50.376;8.742;2023-09-19T04:54:55;6.80;;;1.92;;
14348;SDS011;7258;50.376;8.742;2023-09-19T04:56:58;3.17;;;2.10;;
14348;SDS011;7258;50.376;8.742;2023-09-19T04:59:02;7.40;;;2.03;;
14348;SDS011;7258;50.376;8.742;2023-09-19T05:01:06;2.35;;;2.00;;
14348;SDS011;7258;50.376;8.742;2023-09-19T05:03:13;3.83;;;2.00;;
14348;SDS011;7258;50.376;8.742;2023-09-19T05:05:17;5.15;;;1.90;;
14348;SDS011;7258;50.376;8.742;2023-09-19T05:07:21;5.65;;;2.45;;
14348;SDS011;7258;50.376;8.742;2023-09-19T05:09:27;2.50;;;2.00;;
14348;SDS011;7258;50.376;8.742;2023-09-19T05:11:30;3.92;;;2.00;;
14348;SDS011;7258;50.376;8.742;2023-09-19T05:13:33;2.33;;;1.85;;
14348;SDS011;7258;50.376;8.742;2023-09-19T05:15:36;3.38;;;2.00;;
14348;SDS011;7258;50.376;8.742;2023-09-19T05:17:40;3.47;;;1.90;;
14348;SDS011;7258;50.376;8.742;2023-09-19T05:19:43;2.08;;;1.90;;
14348;SDS011;7258;50.376;8.742;2023-09-19T05:21:48;2.90;;;2.05;;
14348;SDS011;7258;50.376;8.742;2023-09-19T05:23:51;4.70;;;1.90;;
14348;SDS011;7258;50.376;8.742;2023-09-19T05:25:54;2.65;;;2.00;;
14348;SDS011;7258;50.376;8.742;2023-09-19T05:27:59;3.53;;;2.05;;
14348;SDS011;7258;50.376;8.742;2023-09-19T05:30:05;1.98;;;1.88;;
14348;SDS011;7258;50.376;8.742;2023-09-19T05:32:09;7.55;;;2.30;;
14348;SDS011;7258;50.376;8.742;2023-09-19T05:34:18;3.97;;;2.03;;
14348;SDS011;7258;50.376;8.742;2023-09-19T05:36:21;3.30;;;2.30;;
14348;SDS011;7258;50.376;8.742;2023-09-19T05:38:26;8.15;;;2.60;;
14348;SDS011;7258;50.376;8.742;2023-09-19T05:40:29;4.78;;;2.10;;
14348;SDS011;7258;50.376;8.742;2023-09-19T05:42:31;2.47;;;2.13;;
14348;SDS011;7258;50.376;8.742;2023-09-19T05:44:34;4.35;;;2.30;;
14348;SDS011;7258;50.376;8.742;2023-09-19T05:46:37;4.40;;;2.10;;
14348;SDS011;7258;50.376;8.742;2023-09-19T05:48:40;5.00;;;2.05;;
14348;SDS011;7258;50.376;8.742;2023-09-19T05:50:45;5.72;;;2.25;;
14348;SDS011;7258;50.376;8.742;2023-09-19T05:52:52;3.90;;;2.10;;
14348;SDS011;7258;50.376;8.742;2023-09-19T05:54:59;3.33;;;2.35;;
14348;SDS011;7258;50.376;8.742;2023-09-19T05:57:02;6.32;;;3.30;;
14348;SDS011;7258;50.376;8.742;2023-09-19T05:59:05;3.80;;;2.92;;
14348;SDS011;7258;50.376;8.742;2023-09-19T06:01:10;4.65;;;3.50;;
14348;SDS011;7258;50.376;8.742;2023-09-19T06:03:13;4.97;;;3.20;;
14348;SDS011;7258;50.376;8.742;2023-09-19T06:05:16;8.18;;;3.33;;
14348;SDS011;7258;50.376;8.742;2023-09-19T06:07:19;7.88;;;3.65;;
14348;SDS011;7258;50.376;8.742;2023-09-19T06:09:23;4.50;;;3.10;;
14348;SDS011;7258;50.376;8.742;2023-09-19T06:11:27;4.95;;;3.10;;
14348;SDS011;7258;50.376;8.742;2023-09-19T06:13:33;5.97;;;3.10;;
14348;SDS011;7258;50.376;8.742;2023-09-19T06:15:36;6.05;;;3.22;;
14348;SDS011;7258;50.376;8.742;2023-09-19T06:17:38;3.10;;;2.80;;
14348;SDS011;7258;50.376;8.742;2023-09-19T06:19:42;7.03;;;3.03;;
14348;SDS011;7258;50.376;8.742;2023-09-19T06:21:48;6.63;;;3.08;;
14348;SDS011;7258;50.376;8.742;2023-09-19T06:23:51;6.25;;;3.33;;
14348;SDS011;7258;50.376;8.742;2023-09-19T06:25:54;4.95;;;3.00;;
14348;SDS011;7258;50.376;8.742;2023-09-19T06:27:59;4.45;;;2.63;;
14348;SDS011;7258;50.376;8.742;2023-09-19T06:30:06;5.43;;;2.92;;
14348;SDS011;7258;50.376;8.742;2023-09-19T06:32:10;4.28;;;2.63;;
14348;SDS011;7258;50.376;8.742;2023-09-19T06:34:13;5.78;;;2.95;;
14348;SDS011;7258;50.376;8.742;2023-09-19T06:36:16;5.43;;;3.05;;
14348;SDS011;7258;50.376;8.742;2023-09-19T06:38:20;4.30;;;2.60;;
14348;SDS011;7258;50.376;8.742;2023-09-19T06:40:23;5.75;;;2.58;;
14348;SDS011;7258;50.376;8.742;2023-09-19T06:42:25;5.03;;;3.00;;
14348;SDS011;7258;50.376;8.742;2023-09-19T06:44:31;4.32;;;2.72;;
14348;SDS011;7258;50.376;8.742;2023-09-19T06:46:34;9.32;;;2.78;;
14348;SDS011;7258;50.376;8.742;2023-09-19T06:48:40;4.97;;;2.47;;
14348;SDS011;7258;50.376;8.742;2023-09-19T06:50:45;6.70;;;2.58;;
14348;SDS011;7258;50.376;8.742;2023-09-19T06:52:49;3.15;;;2.42;;
14348;SDS011;7258;50.376;8.742;2023-09-19T06:54:53;3.13;;;2.33;;
14348;SDS011;7258;50.376;8.742;2023-09-19T06:56:56;4.15;;;2.15;;
14348;SDS011;7258;50.376;8.742;2023-09-19T06:58:59;3.85;;;3.17;;
14348;SDS011;7258;50.376;8.742;2023-09-19T07:01:05;6.35;;;2.95;;
14348;SDS011;7258;50.376;8.742;2023-09-19T07:03:08;3.47;;;2.42;;
14348;SDS011;7258;50.376;8.742;2023-09-19T07:05:13;5.80;;;3.05;;
14348;SDS011;7258;50.376;8.742;2023-09-19T07:07:15;2.97;;;2.35;;
14348;SDS011;7258;50.376;8.742;2023-09-19T07:09:18;5.00;;;2.42;;
14348;SDS011;7258;50.376;8.742;2023-09-19T07:11:21;7.40;;;2.55;;
14348;SDS011;7258;50.376;8.742;2023-09-19T07:13:23;4.40;;;2.55;;
14348;SDS011;7258;50.376;8.742;2023-09-19T07:15:27;4.70;;;2.60;;
14348;SDS011;7258;50.376;8.742;2023-09-19T07:17:33;4.65;;;2.80;;
14348;SDS011;7258;50.376;8.742;2023-09-19T07:19:36;4.70;;;2.60;;
14348;SDS011;7258;50.376;8.742;2023-09-19T07:21:39;3.40;;;2.38;;
14348;SDS011;7258;50.376;8.742;2023-09-19T07:23:43;7.60;;;2.95;;
14348;SDS011;7258;50.376;8.742;2023-09-19T07:25:46;6.30;;;2.70;;
14348;SDS011;7258;50.376;8.742;2023-09-19T07:27:49;4.80;;;2.42;;
14348;SDS011;7258;50.376;8.742;2023-09-19T07:29:53;4.38;;;2.60;;
14348;SDS011;7258;50.376;8.742;2023-09-19T07:31:56;5.15;;;2.60;;
14348;SDS011;7258;50.376;8.742;2023-09-19T07:34:00;3.85;;;2.40;;
14348;SDS011;7258;50.376;8.742;2023-09-19T07:36:05;4.18;;;2.50;;
14348;SDS011;7258;50.376;8.742;2023-09-19T07:38:11;4.50;;;2.50;;
14348;SDS011;7258;50.376;8.742;2023-09-19T07:40:15;5.80;;;2.20;;
14348;SDS011;7258;50.376;8.742;2023-09-19T07:42:18;4.50;;;2.42;;
14348;SDS011;7258;50.376;8.742;2023-09-19T07:44:21;4.18;;;2.13;;
14348;SDS011;7258;50.376;8.742;2023-09-19T07:46:24;4.47;;;2.65;;
14348;SDS011;7258;50.376;8.742;2023-09-19T07:48:27;2.83;;;2.25;;
14348;SDS011;7258;50.376;8.742;2023-09-19T07:50:30;4.90;;;1.85;;
14348;SDS011;7258;50.376;8.742;2023-09-19T07:52:33;4.53;;;2.17;;
14348;SDS011;7258;50.376;8.742;2023-09-19T07:54:36;4.88;;;2.00;;
14348;SDS011;7258;50.376;8.742;2023-09-19T07:56:40;3.45;;;1.77;;
14348;SDS011;7258;50.376;8.742;2023-09-19T07:58:43;3.60;;;1.70;;
14348;SDS011;7258;50.376;8.742;2023-09-19T08:00:46;4.80;;;1.77;;
14348;SDS011;7258;50.376;8.742;2023-09-19T08:02:49;3.15;;;1.92;;
14348;SDS011;7258;50.376;8.742;2023-09-19T08:05:01;4.20;;;1.92;;
14348;SDS011;7258;50.376;8.742;2023-09-19T08:07:08;3.83;;;2.05;;
14348;SDS011;7258;50.376;8.742;2023-09-19T08:09:12;3.53;;;1.95;;
14348;SDS011;7258;50.376;8.742;2023-09-19T08:11:25;4.30;;;1.95;;
14348;SDS011;7258;50.376;8.742;2023-09-19T08:13:31;3.47;;;2.00;;
14348;SDS011;7258;50.376;8.742;2023-09-19T08:15:35;3.83;;;1.60;;
14348;SDS011;7258;50.376;8.742;2023-09-19T08:17:39;3.55;;;2.08;;
14348;SDS011;7258;50.376;8.742;2023-09-19T08:19:43;4.45;;;2.17;;
14348;SDS011;7258;50.376;8.742;2023-09-19T08:21:47;5.38;;;1.90;;
14348;SDS011;7258;50.376;8.742;2023-09-19T08:23:52;4.18;;;2.00;;
14348;SDS011;7258;50.376;8.742;2023-09-19T08:25:56;5.25;;;2.28;;
14348;SDS011;7258;50.376;8.742;2023-09-19T08:28:04;4.03;;;1.65;;
14348;SDS011;7258;50.376;8.742;2023-09-19T08:30:10;3.45;;;1.85;;
14348;SDS011;7258;50.376;8.742;2023-09-19T08:32:13;5.85;;;2.03;;
14348;SDS011;7258;50.376;8.742;2023-09-19T08:34:17;6.60;;;2.03;;
14348;SDS011;7258;50.376;8.742;2023-09-19T08:36:20;5.22;;;1.92;;
14348;SDS011;7258;50.376;8.742;2023-09-19T08:38:23;3.65;;;1.90;;
14348;SDS011;7258;50.376;8.742;2023-09-19T08:40:26;5.78;;;2.25;;
14348;SDS011;7258;50.376;8.742;2023-09-19T08:42:32;2.63;;;1.80;;
14348;SDS011;7258;50.376;8.742;2023-09-19T08:44:49;8.25;;;2.00;;
14348;SDS011;7258;50.376;8.742;2023-09-19T08:46:54;3.67;;;2.25;;
14348;SDS011;7258;50.376;8.742;2023-09-19T08:49:03;4.20;;;2.15;;
14348;SDS011;7258;50.376;8.742;2023-09-19T08:51:07;5.22;;;2.13;;
14348;SDS011;7258;50.376;8.742;2023-09-19T08:53:15;6.13;;;2.35;;
14348;SDS011;7258;50.376;8.742;2023-09-19T08:55:26;5.10;;;2.10;;
14348;SDS011;7258;50.376;8.742;2023-09-19T08:57:33;6.57;;;2.30;;
14348;SDS011;7258;50.376;8.742;2023-09-19T08:59:40;3.90;;;1.90;;
14348;SDS011;7258;50.376;8.742;2023-09-19T09:01:45;3.80;;;2.08;;
14348;SDS011;7258;50.376;8.742;2023-09-19T09:03:48;3.28;;;1.85;;
14348;SDS011;7258;50.376;8.742;2023-09-19T09:05:51;6.30;;;2.03;;
14348;SDS011;7258;50.376;8.742;2023-09-19T09:07:54;5.13;;;1.92;;
14348;SDS011;7258;50.376;8.742;2023-09-19T09:09:57;6.00;;;2.30;;
14348;SDS011;7258;50.376;8.742;2023-09-19T09:12:01;5.53;;;2.35;;
14348;SDS011;7258;50.376;8.742;2023-09-19T09:14:06;6.38;;;2.20;;
14348;SDS011;7258;50.376;8.742;2023-09-19T09:16:09;2.47;;;2.13;;
14348;SDS011;7258;50.376;8.742;2023-09-19T09:18:13;6.03;;;2.50;;
14348;SDS011;7258;50.376;8.742;2023-09-19T09:20:16;3.88;;;2.00;;
14348;SDS011;7258;50.376;8.742;2023-09-19T09:22:18;4.55;;;2.08;;
14348;SDS011;7258;50.376;8.742;2023-09-19T09:24:28;4.68;;;2.28;;
14348;SDS011;7258;50.376;8.742;2023-09-19T09:26:40;9.20;;;2.65;;
14348;SDS011;7258;50.376;8.742;2023-09-19T09:28:46;4.93;;;2.17;;
14348;SDS011;7258;50.376;8.742;2023-09-19T09:30:51;3.85;;;1.85;;
14348;SDS011;7258;50.376;8.742;2023-09-19T09:33:01;5.78;;;2.50;;
14348;SDS011;7258;50.376;8.742;2023-09-19T09:35:13;6.72;;;2.08;;
14348;SDS011;7258;50.376;8.742;2023-09-19T09:37:16;8.07;;;2.10;;
14348;SDS011;7258;50.376;8.742;2023-09-19T09:39:29;5.63;;;2.20;;
14348;SDS011;7258;50.376;8.742;2023-09-19T09:41:35;5.15;;;2.33;;
14348;SDS011;7258;50.376;8.742;2023-09-19T09:43:41;4.80;;;2.00;;
14348;SDS011;7258;50.376;8.742;2023-09-19T09:45:49;5.65;;;2.50;;
14348;SDS011;7258;50.376;8.742;2023-09-19T09:48:12;5.80;;;2.47;;
14348;SDS011;7258;50.376;8.742;2023-09-19T09:50:26;4.93;;;2.25;;
14348;SDS011;7258;50.376;8.742;2023-09-19T09:52:45;4.32;;;2.13;;
14348;SDS011;7258;50.376;8.742;2023-09-19T09:55:00;3.08;;;2.03;;
14348;SDS011;7258;50.376;8.742;2023-09-19T09:57:08;5.28;;;2.33;;
14348;SDS011;7258;50.376;8.742;2023-09-19T09:59:20;4.38;;;1.90;;
14348;SDS011;7258;50.376;8.742;2023-09-19T10:01:26;3.53;;;1.95;;
14348;SDS011;7258;50.376;8.742;2023-09-19T10:03:32;4.75;;;2.20;;
14348;SDS011;7258;50.376;8.742;2023-09-19T10:05:41;5.55;;;2.20;;
14348;SDS011;7258;50.376;8.742;2023-09-19T10:07:47;5.25;;;2.50;;
14348;SDS011;7258;50.376;8.742;2023-09-19T10:09:53;6.70;;;2.35;;
14348;SDS011;7258;50.376;8.742;2023-09-19T10:12:02;5.35;;;2.45;;
14348;SDS011;7258;50.376;8.742;2023-09-19T10:14:10;6.82;;;2.72;;
14348;SDS011;7258;50.376;8.742;2023-09-19T10:16:15;4.18;;;1.88;;
14348;SDS011;7258;50.376;8.742;2023-09-19T10:18:22;6.05;;;2.33;;
14348;SDS011;7258;50.376;8.742;2023-09-19T10:20:26;5.88;;;2.83;;
14348;SDS011;7258;50.376;8.742;2023-09-19T10:22:37;4.07;;;2.05;;
14348;SDS011;7258;50.376;8.742;2023-09-19T10:24:44;5.82;;;2.83;;
14348;SDS011;7258;50.376;8.742;2023-09-19T10:27:03;4.22;;;2.28;;
14348;SDS011;7258;50.376;8.742;2023-09-19T10:29:13;4.95;;;2.47;;
14348;SDS011;7258;50.376;8.742;2023-09-19T10:31:27;4.72;;;2.38;;
14348;SDS011;7258;50.376;8.742;2023-09-19T10:33:34;4.47;;;2.15;;
14348;SDS011;7258;50.376;8.742;2023-09-19T10:35:40;5.72;;;2.53;;
14348;SDS011;7258;50.376;8.742;2023-09-19T10:37:45;7.07;;;2.88;;
14348;SDS011;7258;50.376;8.742;2023-09-19T10:39:53;3.53;;;2.30;;
14348;SDS011;7258;50.376;8.742;2023-09-19T10:41:57;4.78;;;2.58;;
14348;SDS011;7258;50.376;8.742;2023-09-19T10:44:06;6.55;;;2.53;;
14348;SDS011;7258;50.376;8.742;2023-09-19T10:46:10;6.30;;;2.80;;
14348;SDS011;7258;50.376;8.742;2023-09-19T10:48:14;6.90;;;2.83;;
14348;SDS011;7258;50.376;8.742;2023-09-19T10:50:21;6.85;;;2.72;;
14348;SDS011;7258;50.376;8.742;2023-09-19T10:52:27;3.95;;;2.63;;
14348;SDS011;7258;50.376;8.742;2023-09-19T10:54:31;7.35;;;2.85;;
14348;SDS011;7258;50.376;8.742;2023-09-19T10:56:38;6.55;;;2.50;;
14348;SDS011;7258;50.376;8.742;2023-09-19T10:58:46;7.25;;;2.70;;
14348;SDS011;7258;50.376;8.742;2023-09-19T11:00:51;5.55;;;2.53;;
14348;SDS011;7258;50.376;8.742;2023-09-19T11:05:23;6.97;;;2.63;;
14348;SDS011;7258;50.376;8.742;2023-09-19T11:07:27;4.38;;;2.35;;
14348;SDS011;7258;50.376;8.742;2023-09-19T11:09:44;6.78;;;2.45;;
14348;SDS011;7258;50.376;8.742;2023-09-19T11:11:48;9.98;;;3.17;;
14348;SDS011;7258;50.376;8.742;2023-09-19T11:16:31;5.75;;;2.63;;
14348;SDS011;7258;50.376;8.742;2023-09-19T11:18:53;5.05;;;2.75;;
14348;SDS011;7258;50.376;8.742;2023-09-19T11:23:30;5.97;;;3.15;;
14348;SDS011;7258;50.376;8.742;2023-09-19T11:25:41;7.97;;;2.97;;
14348;SDS011;7258;50.376;8.742;2023-09-19T11:30:26;6.35;;;2.70;;
14348;SDS011;7258;50.376;8.742;2023-09-19T11:35:09;6.22;;;2.63;;
14348;SDS011;7258;50.376;8.742;2023-09-19T11:40:09;8.18;;;2.75;;
14348;SDS011;7258;50.376;8.742;2023-09-19T11:44:46;8.63;;;2.85;;
14348;SDS011;7258;50.376;8.742;2023-09-19T11:46:53;7.13;;;2.85;;
14348;SDS011;7258;50.376;8.742;2023-09-19T11:49:04;8.55;;;3.15;;
14348;SDS011;7258;50.376;8.742;2023-09-19T11:51:12;6.53;;;2.65;;
14348;SDS011;7258;50.376;8.742;2023-09-19T11:53:23;8.50;;;2.63;;
14348;SDS011;7258;50.376;8.742;2023-09-19T11:55:34;4.63;;;2.63;;
14348;SDS011;7258;50.376;8.742;2023-09-19T11:57:39;7.00;;;2.63;;
14348;SDS011;7258;50.376;8.742;2023-09-19T11:59:43;5.03;;;2.40;;
14348;SDS011;7258;50.376;8.742;2023-09-19T12:01:50;6.38;;;2.80;;
14348;SDS011;7258;50.376;8.742;2023-09-19T12:04:00;5.05;;;2.28;;
14348;SDS011;7258;50.376;8.742;2023-09-19T12:06:10;4.80;;;2.67;;
14348;SDS011;7258;50.376;8.742;2023-09-19T12:08:15;8.10;;;3.13;;
14348;SDS011;7258;50.376;8.742;2023-09-19T12:10:18;7.07;;;2.58;;
14348;SDS011;7258;50.376;8.742;2023-09-19T12:12:25;8.18;;;2.90;;
14348;SDS011;7258;50.376;8.742;2023-09-19T12:14:28;7.20;;;2.83;;
14348;SDS011;7258;50.376;8.742;2023-09-19T12:16:31;5.93;;;2.40;;
14348;SDS011;7258;50.376;8.742;2023-09-19T12:18:35;5.75;;;2.33;;
14348;SDS011;7258;50.376;8.742;2023-09-19T12:20:43;5.43;;;2.60;;
14348;SDS011;7258;50.376;8.742;2023-09-19T12:22:51;4.78;;;2.40;;
14348;SDS011;7258;50.376;8.742;2023-09-19T12:24:54;5.18;;;2.80;;
14348;SDS011;7258;50.376;8.742;2023-09-19T12:27:08;7.35;;;2.50;;
14348;SDS011;7258;50.376;8.742;2023-09-19T12:29:15;4.28;;;2.42;;
14348;SDS011;7258;50.376;8.742;2023-09-19T12:31:21;6.32;;;2.30;;
14348;SDS011;7258;50.376;8.742;2023-09-19T12:33:27;7.18;;;2.47;;
14348;SDS011;7258;50.376;8.742;2023-09-19T12:35:32;6.90;;;2.60;;
14348;SDS011;7258;50.376;8.742;2023-09-19T12:37:36;5.93;;;2.50;;
14348;SDS011;7258;50.376;8.742;2023-09-19T12:39:39;4.68;;;2.30;;
14348;SDS011;7258;50.376;8.742;2023-09-19T12:41:42;7.55;;;2.67;;
14348;SDS011;7258;50.376;8.742;2023-09-19T12:43:48;5.60;;;2.80;;
14348;SDS011;7258;50.376;8.742;2023-09-19T12:45:53;5.85;;;2.72;;
14348;SDS011;7258;50.376;8.742;2023-09-19T12:50:31;6.70;;;2.58;;
14348;SDS011;7258;50.376;8.742;2023-09-19T12:52:35;8.32;;;2.80;;
14348;SDS011;7258;50.376;8.742;2023-09-19T12:54:38;7.97;;;2.72;;
14348;SDS011;7258;50.376;8.742;2023-09-19T12:56:43;7.07;;;2.17;;
14348;SDS011;7258;50.376;8.742;2023-09-19T12:58:50;6.65;;;2.55;;
14348;SDS011;7258;50.376;8.742;2023-09-19T13:00:56;4.10;;;2.30;;
14348;SDS011;7258;50.376;8.742;2023-09-19T13:03:16;4.03;;;2.38;;
14348;SDS011;7258;50.376;8.742;2023-09-19T13:05:22;4.47;;;2.42;;
14348;SDS011;7258;50.376;8.742;2023-09-19T13:07:51;4.43;;;2.40;;
14348;SDS011;7258;50.376;8.742;2023-09-19T13:10:02;5.03;;;2.30;;